sensor_id;sensor_type;location;lat;lon;timestamp;P1;durP1;ratioP1;P2;durP2;ratioP2
51288;SDS011;37372;52.294;5.152;2024-02-26T00:00:49;10.30;;;4.50;;
51288;SDS011;37372;52.294;5.152;2024-02-26T00:03:14;7.78;;;4.80;;
51288;SDS011;37372;52.294;5.152;2024-02-26T00:05:40;10.53;;;5.27;;
51288;SDS011;37372;52.294;5.152;2024-02-26T00:08:06;8.87;;;4.57;;
51288;SDS011;37372;52.294;5.152;2024-02-26T00:10:31;6.45;;;4.50;;
51288;SDS011;37372;52.294;5.152;2024-02-26T00:12:56;7.37;;;4.80;;
51288;SDS011;37372;52.294;5.152;2024-02-26T00:15:22;7.40;;;4.40;;
51288;SDS011;37372;52.294;5.152;2024-02-26T00:17:47;6.80;;;4.70;;
51288;SDS011;37372;52.294;5.152;2024-02-26T00:20:15;8.45;;;4.75;;
51288;SDS011;37372;52.294;5.152;2024-02-26T00:22:41;7.50;;;4.57;;
51288;SDS011;37372;52.294;5.152;2024-02-26T00:25:06;7.10;;;4.63;;
51288;SDS011;37372;52.294;5.152;2024-02-26T00:27:32;7.07;;;4.95;;
51288;SDS011;37372;52.294;5.152;2024-02-26T00:30:01;7.57;;;4.88;;
51288;SDS011;37372;52.294;5.152;2024-02-26T00:32:35;9.60;;;5.40;;
51288;SDS011;37372;52.294;5.152;2024-02-26T00:35:01;9.05;;;5.25;;
51288;SDS011;37372;52.294;5.152;2024-02-26T00:37:26;9.53;;;5.20;;
51288;SDS011;37372;52.294;5.152;2024-02-26T00:39:52;9.73;;;5.53;;
51288;SDS011;37372;52.294;5.152;2024-02-26T00:42:19;7.53;;;5.10;;
51288;SDS011;37372;52.294;5.152;2024-02-26T00:44:53;8.80;;;5.17;;
51288;SDS011;37372;52.294;5.152;2024-02-26T00:47:22;10.10;;;5.43;;
51288;SDS011;37372;52.294;5.152;2024-02-26T00:49:48;8.85;;;5.80;;
51288;SDS011;37372;52.294;5.152;2024-02-26T00:52:13;9.30;;;5.67;;
51288;SDS011;37372;52.294;5.152;2024-02-26T00:54:38;10.60;;;5.60;;
51288;SDS011;37372;52.294;5.152;2024-02-26T00:57:04;11.23;;;6.03;;
51288;SDS011;37372;52.294;5.152;2024-02-26T00:59:29;10.47;;;6.27;;
51288;SDS011;37372;52.294;5.152;2024-02-26T01:01:55;12.60;;;6.63;;
51288;SDS011;37372;52.294;5.152;2024-02-26T01:04:20;11.03;;;6.73;;
51288;SDS011;37372;52.294;5.152;2024-02-26T01:06:46;10.97;;;6.40;;
51288;SDS011;37372;52.294;5.152;2024-02-26T01:09:11;12.00;;;6.90;;
51288;SDS011;37372;52.294;5.152;2024-02-26T01:11:40;14.38;;;7.32;;
51288;SDS011;37372;52.294;5.152;2024-02-26T01:14:05;13.40;;;7.97;;
51288;SDS011;37372;52.294;5.152;2024-02-26T01:16:31;13.70;;;7.43;;
51288;SDS011;37372;52.294;5.152;2024-02-26T01:18:57;14.85;;;7.63;;
51288;SDS011;37372;52.294;5.152;2024-02-26T01:21:22;13.37;;;7.13;;
51288;SDS011;37372;52.294;5.152;2024-02-26T01:23:48;17.27;;;7.90;;
51288;SDS011;37372;52.294;5.152;2024-02-26T01:26:14;13.93;;;7.50;;
51288;SDS011;37372;52.294;5.152;2024-02-26T01:28:41;14.13;;;7.60;;
51288;SDS011;37372;52.294;5.152;2024-02-26T01:31:06;16.20;;;7.90;;
51288;SDS011;37372;52.294;5.152;2024-02-26T01:33:34;13.60;;;7.40;;
51288;SDS011;37372;52.294;5.152;2024-02-26T01:35:59;12.75;;;7.20;;
51288;SDS011;37372;52.294;5.152;2024-02-26T01:38:26;12.60;;;7.07;;
51288;SDS011;37372;52.294;5.152;2024-02-26T01:40:52;12.98;;;6.78;;
51288;SDS011;37372;52.294;5.152;2024-02-26T01:43:18;12.03;;;7.10;;
51288;SDS011;37372;52.294;5.152;2024-02-26T01:45:43;13.47;;;6.70;;
51288;SDS011;37372;52.294;5.152;2024-02-26T01:48:08;13.80;;;7.00;;
51288;SDS011;37372;52.294;5.152;2024-02-26T01:50:36;11.90;;;6.70;;
51288;SDS011;37372;52.294;5.152;2024-02-26T01:53:03;13.00;;;6.60;;
51288;SDS011;37372;52.294;5.152;2024-02-26T01:55:29;13.18;;;6.45;;
51288;SDS011;37372;52.294;5.152;2024-02-26T01:57:55;13.63;;;6.93;;
51288;SDS011;37372;52.294;5.152;2024-02-26T02:00:21;13.77;;;7.40;;
51288;SDS011;37372;52.294;5.152;2024-02-26T02:02:48;11.80;;;6.93;;
51288;SDS011;37372;52.294;5.152;2024-02-26T02:05:16;11.90;;;6.47;;
51288;SDS011;37372;52.294;5.152;2024-02-26T02:07:45;12.27;;;6.67;;
51288;SDS011;37372;52.294;5.152;2024-02-26T02:10:13;11.27;;;6.40;;
51288;SDS011;37372;52.294;5.152;2024-02-26T02:12:41;10.87;;;6.53;;
51288;SDS011;37372;52.294;5.152;2024-02-26T02:15:08;11.88;;;6.75;;
51288;SDS011;37372;52.294;5.152;2024-02-26T02:17:35;12.18;;;6.63;;
51288;SDS011;37372;52.294;5.152;2024-02-26T02:20:00;14.00;;;6.47;;
51288;SDS011;37372;52.294;5.152;2024-02-26T02:22:26;13.43;;;6.93;;
51288;SDS011;37372;52.294;5.152;2024-02-26T02:24:52;13.25;;;7.10;;
51288;SDS011;37372;52.294;5.152;2024-02-26T02:27:17;11.10;;;6.40;;
51288;SDS011;37372;52.294;5.152;2024-02-26T02:29:47;11.10;;;6.55;;
51288;SDS011;37372;52.294;5.152;2024-02-26T02:32:13;12.17;;;6.73;;
51288;SDS011;37372;52.294;5.152;2024-02-26T02:34:41;14.15;;;7.07;;
51288;SDS011;37372;52.294;5.152;2024-02-26T02:37:06;15.40;;;6.90;;
51288;SDS011;37372;52.294;5.152;2024-02-26T02:39:31;13.33;;;6.67;;
51288;SDS011;37372;52.294;5.152;2024-02-26T02:41:57;15.43;;;7.22;;
51288;SDS011;37372;52.294;5.152;2024-02-26T02:44:22;15.43;;;7.57;;
51288;SDS011;37372;52.294;5.152;2024-02-26T02:46:47;12.97;;;7.00;;
51288;SDS011;37372;52.294;5.152;2024-02-26T02:49:15;14.27;;;7.50;;
51288;SDS011;37372;52.294;5.152;2024-02-26T02:51:41;14.20;;;7.33;;
51288;SDS011;37372;52.294;5.152;2024-02-26T02:54:07;17.17;;;7.88;;
51288;SDS011;37372;52.294;5.152;2024-02-26T02:56:33;15.32;;;7.75;;
51288;SDS011;37372;52.294;5.152;2024-02-26T02:59:00;14.93;;;7.85;;
51288;SDS011;37372;52.294;5.152;2024-02-26T03:01:26;16.00;;;7.97;;
51288;SDS011;37372;52.294;5.152;2024-02-26T03:03:52;16.37;;;8.40;;
51288;SDS011;37372;52.294;5.152;2024-02-26T03:06:17;16.70;;;8.57;;
51288;SDS011;37372;52.294;5.152;2024-02-26T03:08:43;14.37;;;8.00;;
51288;SDS011;37372;52.294;5.152;2024-02-26T03:11:12;16.03;;;8.70;;
51288;SDS011;37372;52.294;5.152;2024-02-26T03:13:39;15.33;;;7.80;;
51288;SDS011;37372;52.294;5.152;2024-02-26T03:16:05;15.13;;;8.00;;
51288;SDS011;37372;52.294;5.152;2024-02-26T03:18:30;15.13;;;8.00;;
51288;SDS011;37372;52.294;5.152;2024-02-26T03:20:56;15.00;;;7.97;;
51288;SDS011;37372;52.294;5.152;2024-02-26T03:23:21;14.60;;;7.90;;
51288;SDS011;37372;52.294;5.152;2024-02-26T03:25:52;17.00;;;8.30;;
51288;SDS011;37372;52.294;5.152;2024-02-26T03:28:18;14.90;;;7.60;;
51288;SDS011;37372;52.294;5.152;2024-02-26T03:30:43;16.97;;;8.03;;
51288;SDS011;37372;52.294;5.152;2024-02-26T03:33:11;15.50;;;7.75;;
51288;SDS011;37372;52.294;5.152;2024-02-26T03:35:37;15.23;;;8.43;;
51288;SDS011;37372;52.294;5.152;2024-02-26T03:38:02;16.83;;;8.17;;
51288;SDS011;37372;52.294;5.152;2024-02-26T03:40:28;16.33;;;7.75;;
51288;SDS011;37372;52.294;5.152;2024-02-26T03:42:53;15.47;;;7.93;;
51288;SDS011;37372;52.294;5.152;2024-02-26T03:45:19;16.13;;;7.80;;
51288;SDS011;37372;52.294;5.152;2024-02-26T03:47:45;15.77;;;7.65;;
51288;SDS011;37372;52.294;5.152;2024-02-26T03:50:10;16.80;;;7.57;;
51288;SDS011;37372;52.294;5.152;2024-02-26T03:52:35;15.17;;;8.00;;
51288;SDS011;37372;52.294;5.152;2024-02-26T03:55:01;16.77;;;7.90;;
51288;SDS011;37372;52.294;5.152;2024-02-26T03:57:29;16.97;;;7.60;;
51288;SDS011;37372;52.294;5.152;2024-02-26T03:59:54;14.27;;;7.00;;
51288;SDS011;37372;52.294;5.152;2024-02-26T04:02:20;15.60;;;7.57;;
51288;SDS011;37372;52.294;5.152;2024-02-26T04:04:46;15.43;;;7.03;;
51288;SDS011;37372;52.294;5.152;2024-02-26T04:07:12;15.15;;;7.75;;
51288;SDS011;37372;52.294;5.152;2024-02-26T04:09:38;14.80;;;7.40;;
51288;SDS011;37372;52.294;5.152;2024-02-26T04:12:05;16.87;;;8.13;;
51288;SDS011;37372;52.294;5.152;2024-02-26T04:14:33;15.07;;;7.63;;
51288;SDS011;37372;52.294;5.152;2024-02-26T04:16:58;16.70;;;7.93;;
51288;SDS011;37372;52.294;5.152;2024-02-26T04:19:23;16.93;;;7.93;;
51288;SDS011;37372;52.294;5.152;2024-02-26T04:21:50;16.87;;;7.50;;
51288;SDS011;37372;52.294;5.152;2024-02-26T04:24:15;15.57;;;7.78;;
51288;SDS011;37372;52.294;5.152;2024-02-26T04:26:41;17.80;;;8.10;;
51288;SDS011;37372;52.294;5.152;2024-02-26T04:29:19;17.90;;;8.10;;
51288;SDS011;37372;52.294;5.152;2024-02-26T04:31:44;14.40;;;7.53;;
51288;SDS011;37372;52.294;5.152;2024-02-26T04:34:11;15.50;;;8.13;;
51288;SDS011;37372;52.294;5.152;2024-02-26T04:36:36;16.97;;;7.40;;
51288;SDS011;37372;52.294;5.152;2024-02-26T04:39:02;17.70;;;7.80;;
51288;SDS011;37372;52.294;5.152;2024-02-26T04:41:28;15.47;;;7.50;;
51288;SDS011;37372;52.294;5.152;2024-02-26T04:43:53;17.50;;;8.00;;
51288;SDS011;37372;52.294;5.152;2024-02-26T04:46:18;15.20;;;8.03;;
51288;SDS011;37372;52.294;5.152;2024-02-26T04:48:44;18.65;;;8.63;;
51288;SDS011;37372;52.294;5.152;2024-02-26T04:51:11;15.53;;;7.70;;
51288;SDS011;37372;52.294;5.152;2024-02-26T04:53:37;16.13;;;8.00;;
51288;SDS011;37372;52.294;5.152;2024-02-26T04:56:02;16.77;;;7.43;;
51288;SDS011;37372;52.294;5.152;2024-02-26T04:58:29;20.05;;;7.93;;
51288;SDS011;37372;52.294;5.152;2024-02-26T05:00:54;18.43;;;8.40;;
51288;SDS011;37372;52.294;5.152;2024-02-26T05:03:21;16.00;;;8.10;;
51288;SDS011;37372;52.294;5.152;2024-02-26T05:05:47;17.58;;;8.32;;
51288;SDS011;37372;52.294;5.152;2024-02-26T05:08:19;18.93;;;8.33;;
51288;SDS011;37372;52.294;5.152;2024-02-26T05:10:46;19.23;;;8.33;;
51288;SDS011;37372;52.294;5.152;2024-02-26T05:13:11;17.33;;;8.05;;
51288;SDS011;37372;52.294;5.152;2024-02-26T05:15:36;18.23;;;8.50;;
51288;SDS011;37372;52.294;5.152;2024-02-26T05:18:02;20.20;;;8.90;;
51288;SDS011;37372;52.294;5.152;2024-02-26T05:20:28;20.08;;;8.95;;
51288;SDS011;37372;52.294;5.152;2024-02-26T05:22:53;22.23;;;9.47;;
51288;SDS011;37372;52.294;5.152;2024-02-26T05:25:20;20.60;;;8.50;;
51288;SDS011;37372;52.294;5.152;2024-02-26T05:27:48;22.37;;;10.07;;
51288;SDS011;37372;52.294;5.152;2024-02-26T05:30:14;21.30;;;9.38;;
51288;SDS011;37372;52.294;5.152;2024-02-26T05:32:40;24.48;;;10.38;;
51288;SDS011;37372;52.294;5.152;2024-02-26T05:35:05;23.07;;;9.63;;
51288;SDS011;37372;52.294;5.152;2024-02-26T05:37:32;21.60;;;9.82;;
51288;SDS011;37372;52.294;5.152;2024-02-26T05:39:57;25.03;;;9.93;;
51288;SDS011;37372;52.294;5.152;2024-02-26T05:42:24;24.48;;;9.60;;
51288;SDS011;37372;52.294;5.152;2024-02-26T05:44:49;22.87;;;9.90;;
51288;SDS011;37372;52.294;5.152;2024-02-26T05:47:15;23.77;;;10.15;;
51288;SDS011;37372;52.294;5.152;2024-02-26T05:49:42;26.33;;;10.80;;
51288;SDS011;37372;52.294;5.152;2024-02-26T05:52:08;23.15;;;10.20;;
51288;SDS011;37372;52.294;5.152;2024-02-26T05:54:34;25.10;;;11.23;;
51288;SDS011;37372;52.294;5.152;2024-02-26T05:57:00;25.52;;;11.05;;
51288;SDS011;37372;52.294;5.152;2024-02-26T05:59:29;26.25;;;11.57;;
51288;SDS011;37372;52.294;5.152;2024-02-26T06:01:54;23.27;;;10.73;;
51288;SDS011;37372;52.294;5.152;2024-02-26T06:04:20;27.20;;;11.85;;
51288;SDS011;37372;52.294;5.152;2024-02-26T06:06:45;26.80;;;11.63;;
51288;SDS011;37372;52.294;5.152;2024-02-26T06:09:11;27.93;;;11.57;;
51288;SDS011;37372;52.294;5.152;2024-02-26T06:11:36;25.77;;;11.77;;
51288;SDS011;37372;52.294;5.152;2024-02-26T06:14:03;28.05;;;11.98;;
51288;SDS011;37372;52.294;5.152;2024-02-26T06:16:29;27.77;;;12.98;;
51288;SDS011;37372;52.294;5.152;2024-02-26T06:18:55;26.07;;;11.33;;
51288;SDS011;37372;52.294;5.152;2024-02-26T06:21:27;29.05;;;12.77;;
51288;SDS011;37372;52.294;5.152;2024-02-26T06:23:52;27.83;;;13.13;;
51288;SDS011;37372;52.294;5.152;2024-02-26T06:26:17;26.07;;;11.90;;
51288;SDS011;37372;52.294;5.152;2024-02-26T06:28:45;28.63;;;12.55;;
51288;SDS011;37372;52.294;5.152;2024-02-26T06:31:11;28.47;;;12.50;;
51288;SDS011;37372;52.294;5.152;2024-02-26T06:33:36;27.63;;;12.13;;
51288;SDS011;37372;52.294;5.152;2024-02-26T06:36:02;26.35;;;11.52;;
51288;SDS011;37372;52.294;5.152;2024-02-26T06:38:28;25.40;;;11.27;;
51288;SDS011;37372;52.294;5.152;2024-02-26T06:40:53;28.98;;;12.55;;
51288;SDS011;37372;52.294;5.152;2024-02-26T06:43:18;27.37;;;12.50;;
51288;SDS011;37372;52.294;5.152;2024-02-26T06:45:44;25.73;;;11.53;;
51288;SDS011;37372;52.294;5.152;2024-02-26T06:48:10;23.63;;;10.80;;
51288;SDS011;37372;52.294;5.152;2024-02-26T06:50:35;23.45;;;10.85;;
51288;SDS011;37372;52.294;5.152;2024-02-26T06:53:00;23.13;;;10.60;;
51288;SDS011;37372;52.294;5.152;2024-02-26T06:55:26;22.80;;;10.50;;
51288;SDS011;37372;52.294;5.152;2024-02-26T06:57:52;23.20;;;10.40;;
51288;SDS011;37372;52.294;5.152;2024-02-26T07:00:17;22.03;;;10.70;;
51288;SDS011;37372;52.294;5.152;2024-02-26T07:02:43;22.88;;;11.20;;
51288;SDS011;37372;52.294;5.152;2024-02-26T07:05:09;20.87;;;10.07;;
51288;SDS011;37372;52.294;5.152;2024-02-26T07:07:35;22.40;;;10.05;;
51288;SDS011;37372;52.294;5.152;2024-02-26T07:10:00;18.33;;;10.00;;
51288;SDS011;37372;52.294;5.152;2024-02-26T07:12:31;20.45;;;9.98;;
51288;SDS011;37372;52.294;5.152;2024-02-26T07:15:06;18.73;;;9.17;;
51288;SDS011;37372;52.294;5.152;2024-02-26T07:17:33;19.83;;;9.70;;
51288;SDS011;37372;52.294;5.152;2024-02-26T07:19:59;22.23;;;9.68;;
51288;SDS011;37372;52.294;5.152;2024-02-26T07:22:25;18.67;;;8.43;;
51288;SDS011;37372;52.294;5.152;2024-02-26T07:24:50;20.20;;;9.40;;
51288;SDS011;37372;52.294;5.152;2024-02-26T07:27:16;18.33;;;8.57;;
51288;SDS011;37372;52.294;5.152;2024-02-26T07:29:43;18.85;;;8.85;;
51288;SDS011;37372;52.294;5.152;2024-02-26T07:32:08;17.00;;;8.63;;
51288;SDS011;37372;52.294;5.152;2024-02-26T07:34:34;16.10;;;8.07;;
51288;SDS011;37372;52.294;5.152;2024-02-26T07:37:00;21.15;;;8.80;;
51288;SDS011;37372;52.294;5.152;2024-02-26T07:39:26;15.18;;;7.68;;
51288;SDS011;37372;52.294;5.152;2024-02-26T07:41:51;16.77;;;7.90;;
51288;SDS011;37372;52.294;5.152;2024-02-26T07:44:18;15.45;;;7.95;;
51288;SDS011;37372;52.294;5.152;2024-02-26T07:46:44;14.27;;;7.23;;
51288;SDS011;37372;52.294;5.152;2024-02-26T07:49:09;14.57;;;6.82;;
51288;SDS011;37372;52.294;5.152;2024-02-26T07:51:35;15.55;;;7.55;;
51288;SDS011;37372;52.294;5.152;2024-02-26T07:54:01;14.20;;;7.10;;
51288;SDS011;37372;52.294;5.152;2024-02-26T07:56:29;15.32;;;7.00;;
51288;SDS011;37372;52.294;5.152;2024-02-26T07:58:55;14.27;;;6.67;;
51288;SDS011;37372;52.294;5.152;2024-02-26T08:01:20;16.17;;;6.43;;
51288;SDS011;37372;52.294;5.152;2024-02-26T08:03:46;11.63;;;6.23;;
51288;SDS011;37372;52.294;5.152;2024-02-26T08:06:11;13.68;;;6.05;;
51288;SDS011;37372;52.294;5.152;2024-02-26T08:08:37;14.20;;;6.70;;
51288;SDS011;37372;52.294;5.152;2024-02-26T08:11:02;10.63;;;5.50;;
51288;SDS011;37372;52.294;5.152;2024-02-26T08:13:28;11.27;;;5.72;;
51288;SDS011;37372;52.294;5.152;2024-02-26T08:15:54;13.87;;;5.80;;
51288;SDS011;37372;52.294;5.152;2024-02-26T08:18:20;12.73;;;5.80;;
51288;SDS011;37372;52.294;5.152;2024-02-26T08:20:46;9.57;;;5.43;;
51288;SDS011;37372;52.294;5.152;2024-02-26T08:23:13;12.20;;;5.70;;
51288;SDS011;37372;52.294;5.152;2024-02-26T08:25:38;10.13;;;5.20;;
51288;SDS011;37372;52.294;5.152;2024-02-26T08:28:03;10.17;;;5.10;;
51288;SDS011;37372;52.294;5.152;2024-02-26T08:30:30;10.95;;;5.38;;
51288;SDS011;37372;52.294;5.152;2024-02-26T08:32:56;9.40;;;5.03;;
51288;SDS011;37372;52.294;5.152;2024-02-26T08:35:21;9.02;;;4.88;;
51288;SDS011;37372;52.294;5.152;2024-02-26T08:37:48;8.70;;;4.80;;
51288;SDS011;37372;52.294;5.152;2024-02-26T08:40:13;7.57;;;4.37;;
51288;SDS011;37372;52.294;5.152;2024-02-26T08:42:40;7.32;;;3.85;;
51288;SDS011;37372;52.294;5.152;2024-02-26T08:45:09;9.43;;;4.65;;
51288;SDS011;37372;52.294;5.152;2024-02-26T08:47:34;11.10;;;4.30;;
51288;SDS011;37372;52.294;5.152;2024-02-26T08:50:00;7.37;;;3.90;;
51288;SDS011;37372;52.294;5.152;2024-02-26T08:52:25;8.43;;;4.40;;
51288;SDS011;37372;52.294;5.152;2024-02-26T08:54:51;7.90;;;4.50;;
51288;SDS011;37372;52.294;5.152;2024-02-26T08:57:16;7.93;;;4.10;;
51288;SDS011;37372;52.294;5.152;2024-02-26T08:59:41;7.27;;;3.93;;
51288;SDS011;37372;52.294;5.152;2024-02-26T09:02:07;8.68;;;4.13;;
51288;SDS011;37372;52.294;5.152;2024-02-26T09:04:34;7.93;;;4.03;;
51288;SDS011;37372;52.294;5.152;2024-02-26T09:07:00;7.88;;;4.03;;
51288;SDS011;37372;52.294;5.152;2024-02-26T09:09:26;7.20;;;4.03;;
51288;SDS011;37372;52.294;5.152;2024-02-26T09:11:52;8.73;;;4.50;;
51288;SDS011;37372;52.294;5.152;2024-02-26T09:14:18;7.05;;;3.80;;
51288;SDS011;37372;52.294;5.152;2024-02-26T09:16:44;7.60;;;3.78;;
51288;SDS011;37372;52.294;5.152;2024-02-26T09:19:09;6.97;;;3.80;;
51288;SDS011;37372;52.294;5.152;2024-02-26T09:21:34;7.33;;;4.10;;
51288;SDS011;37372;52.294;5.152;2024-02-26T09:24:00;8.45;;;4.00;;
51288;SDS011;37372;52.294;5.152;2024-02-26T09:26:25;7.63;;;4.17;;
51288;SDS011;37372;52.294;5.152;2024-02-26T09:28:51;6.07;;;3.55;;
51288;SDS011;37372;52.294;5.152;2024-02-26T09:31:17;7.37;;;3.93;;
51288;SDS011;37372;52.294;5.152;2024-02-26T09:33:43;8.83;;;4.20;;
51288;SDS011;37372;52.294;5.152;2024-02-26T09:36:09;7.88;;;4.10;;
51288;SDS011;37372;52.294;5.152;2024-02-26T09:38:39;10.00;;;4.10;;
51288;SDS011;37372;52.294;5.152;2024-02-26T09:41:04;6.77;;;4.20;;
51288;SDS011;37372;52.294;5.152;2024-02-26T09:43:34;8.18;;;3.92;;
51288;SDS011;37372;52.294;5.152;2024-02-26T09:46:01;8.80;;;4.40;;
51288;SDS011;37372;52.294;5.152;2024-02-26T09:48:28;6.50;;;3.53;;
51288;SDS011;37372;52.294;5.152;2024-02-26T09:50:55;7.18;;;3.88;;
51288;SDS011;37372;52.294;5.152;2024-02-26T09:53:21;7.18;;;4.13;;
51288;SDS011;37372;52.294;5.152;2024-02-26T09:55:47;7.40;;;3.85;;
51288;SDS011;37372;52.294;5.152;2024-02-26T09:58:12;7.30;;;3.90;;
51288;SDS011;37372;52.294;5.152;2024-02-26T10:00:43;7.35;;;4.40;;
51288;SDS011;37372;52.294;5.152;2024-02-26T10:03:16;9.50;;;4.05;;
51288;SDS011;37372;52.294;5.152;2024-02-26T10:05:43;6.97;;;3.97;;
51288;SDS011;37372;52.294;5.152;2024-02-26T10:08:10;7.78;;;4.20;;
51288;SDS011;37372;52.294;5.152;2024-02-26T10:10:37;7.00;;;4.32;;
51288;SDS011;37372;52.294;5.152;2024-02-26T10:13:04;7.03;;;3.97;;
51288;SDS011;37372;52.294;5.152;2024-02-26T10:15:35;8.38;;;4.22;;
51288;SDS011;37372;52.294;5.152;2024-02-26T10:18:04;7.67;;;4.13;;
51288;SDS011;37372;52.294;5.152;2024-02-26T10:20:33;6.40;;;3.95;;
51288;SDS011;37372;52.294;5.152;2024-02-26T10:23:02;7.03;;;3.70;;
51288;SDS011;37372;52.294;5.152;2024-02-26T10:25:28;7.20;;;4.35;;
51288;SDS011;37372;52.294;5.152;2024-02-26T10:27:53;6.88;;;3.85;;
51288;SDS011;37372;52.294;5.152;2024-02-26T10:30:20;7.67;;;3.97;;
51288;SDS011;37372;52.294;5.152;2024-02-26T10:32:47;5.88;;;3.80;;
51288;SDS011;37372;52.294;5.152;2024-02-26T10:35:14;8.40;;;4.32;;
51288;SDS011;37372;52.294;5.152;2024-02-26T10:37:41;7.13;;;4.23;;
51288;SDS011;37372;52.294;5.152;2024-02-26T10:40:09;8.70;;;4.40;;
51288;SDS011;37372;52.294;5.152;2024-02-26T10:42:36;8.38;;;4.25;;
51288;SDS011;37372;52.294;5.152;2024-02-26T10:45:03;7.07;;;4.10;;
51288;SDS011;37372;52.294;5.152;2024-02-26T10:47:29;7.25;;;4.30;;
51288;SDS011;37372;52.294;5.152;2024-02-26T10:49:55;8.97;;;4.00;;
51288;SDS011;37372;52.294;5.152;2024-02-26T10:52:22;8.35;;;4.30;;
51288;SDS011;37372;52.294;5.152;2024-02-26T10:54:50;8.25;;;4.07;;
51288;SDS011;37372;52.294;5.152;2024-02-26T10:57:19;8.30;;;4.47;;
51288;SDS011;37372;52.294;5.152;2024-02-26T10:59:46;7.90;;;4.10;;
51288;SDS011;37372;52.294;5.152;2024-02-26T11:02:14;7.78;;;4.30;;
51288;SDS011;37372;52.294;5.152;2024-02-26T11:04:39;6.35;;;3.60;;
51288;SDS011;37372;52.294;5.152;2024-02-26T11:07:06;8.20;;;3.70;;
51288;SDS011;37372;52.294;5.152;2024-02-26T11:09:35;6.88;;;4.03;;
51288;SDS011;37372;52.294;5.152;2024-02-26T11:12:02;6.47;;;4.13;;
51288;SDS011;37372;52.294;5.152;2024-02-26T11:14:32;7.20;;;3.97;;
51288;SDS011;37372;52.294;5.152;2024-02-26T11:17:00;6.82;;;3.97;;
51288;SDS011;37372;52.294;5.152;2024-02-26T11:19:25;6.63;;;3.67;;
51288;SDS011;37372;52.294;5.152;2024-02-26T11:21:53;7.88;;;4.10;;
51288;SDS011;37372;52.294;5.152;2024-02-26T11:24:18;7.30;;;4.20;;
51288;SDS011;37372;52.294;5.152;2024-02-26T11:26:48;8.10;;;4.20;;
51288;SDS011;37372;52.294;5.152;2024-02-26T11:29:17;7.70;;;3.93;;
51288;SDS011;37372;52.294;5.152;2024-02-26T11:31:46;7.05;;;3.83;;
51288;SDS011;37372;52.294;5.152;2024-02-26T11:34:12;6.15;;;3.78;;
51288;SDS011;37372;52.294;5.152;2024-02-26T11:36:38;6.50;;;3.53;;
51288;SDS011;37372;52.294;5.152;2024-02-26T11:39:04;7.25;;;3.53;;
51288;SDS011;37372;52.294;5.152;2024-02-26T11:41:30;7.78;;;3.35;;
51288;SDS011;37372;52.294;5.152;2024-02-26T11:44:03;7.95;;;3.72;;
51288;SDS011;37372;52.294;5.152;2024-02-26T11:46:33;5.23;;;3.40;;
51288;SDS011;37372;52.294;5.152;2024-02-26T11:49:16;7.00;;;3.80;;
51288;SDS011;37372;52.294;5.152;2024-02-26T11:51:52;6.90;;;3.53;;
51288;SDS011;37372;52.294;5.152;2024-02-26T11:57:30;5.65;;;3.58;;
51288;SDS011;37372;52.294;5.152;2024-02-26T12:02:43;6.95;;;3.55;;
51288;SDS011;37372;52.294;5.152;2024-02-26T12:05:16;6.53;;;3.33;;
51288;SDS011;37372;52.294;5.152;2024-02-26T12:07:49;5.18;;;3.30;;
51288;SDS011;37372;52.294;5.152;2024-02-26T12:12:54;5.90;;;3.87;;
51288;SDS011;37372;52.294;5.152;2024-02-26T12:15:23;6.30;;;3.40;;
51288;SDS011;37372;52.294;5.152;2024-02-26T12:17:49;7.45;;;3.45;;
51288;SDS011;37372;52.294;5.152;2024-02-26T12:20:15;5.13;;;3.13;;
51288;SDS011;37372;52.294;5.152;2024-02-26T12:22:44;6.10;;;3.40;;
51288;SDS011;37372;52.294;5.152;2024-02-26T12:25:12;7.13;;;3.67;;
51288;SDS011;37372;52.294;5.152;2024-02-26T12:27:38;6.13;;;3.42;;
51288;SDS011;37372;52.294;5.152;2024-02-26T12:30:04;6.57;;;3.33;;
51288;SDS011;37372;52.294;5.152;2024-02-26T12:32:32;5.80;;;3.27;;
51288;SDS011;37372;52.294;5.152;2024-02-26T12:34:58;5.63;;;3.20;;
51288;SDS011;37372;52.294;5.152;2024-02-26T12:37:25;5.90;;;3.38;;
51288;SDS011;37372;52.294;5.152;2024-02-26T12:39:51;7.07;;;3.63;;
51288;SDS011;37372;52.294;5.152;2024-02-26T12:42:17;5.83;;;2.83;;
51288;SDS011;37372;52.294;5.152;2024-02-26T12:44:44;6.77;;;3.00;;
51288;SDS011;37372;52.294;5.152;2024-02-26T12:47:19;6.60;;;3.40;;
51288;SDS011;37372;52.294;5.152;2024-02-26T12:49:47;6.38;;;3.40;;
51288;SDS011;37372;52.294;5.152;2024-02-26T12:52:13;5.30;;;3.20;;
51288;SDS011;37372;52.294;5.152;2024-02-26T12:54:39;5.95;;;3.40;;
51288;SDS011;37372;52.294;5.152;2024-02-26T12:57:07;6.72;;;3.70;;
51288;SDS011;37372;52.294;5.152;2024-02-26T12:59:34;5.25;;;3.28;;
51288;SDS011;37372;52.294;5.152;2024-02-26T13:02:01;7.35;;;3.13;;
51288;SDS011;37372;52.294;5.152;2024-02-26T13:04:29;5.53;;;3.20;;
51288;SDS011;37372;52.294;5.152;2024-02-26T13:06:56;5.50;;;3.05;;
51288;SDS011;37372;52.294;5.152;2024-02-26T13:09:31;5.50;;;3.15;;
51288;SDS011;37372;52.294;5.152;2024-02-26T13:11:57;8.07;;;3.20;;
51288;SDS011;37372;52.294;5.152;2024-02-26T13:14:24;4.32;;;2.83;;
51288;SDS011;37372;52.294;5.152;2024-02-26T13:16:56;4.60;;;3.00;;
51288;SDS011;37372;52.294;5.152;2024-02-26T13:19:25;5.97;;;3.13;;
51288;SDS011;37372;52.294;5.152;2024-02-26T13:21:52;5.53;;;3.03;;
51288;SDS011;37372;52.294;5.152;2024-02-26T13:24:19;5.55;;;3.00;;
51288;SDS011;37372;52.294;5.152;2024-02-26T13:26:45;5.97;;;3.10;;
51288;SDS011;37372;52.294;5.152;2024-02-26T13:29:17;6.60;;;3.20;;
51288;SDS011;37372;52.294;5.152;2024-02-26T13:32:05;7.97;;;2.90;;
51288;SDS011;37372;52.294;5.152;2024-02-26T13:34:33;5.53;;;2.75;;
51288;SDS011;37372;52.294;5.152;2024-02-26T13:37:00;8.27;;;3.08;;
51288;SDS011;37372;52.294;5.152;2024-02-26T13:39:26;4.40;;;3.00;;
51288;SDS011;37372;52.294;5.152;2024-02-26T13:41:53;6.70;;;2.70;;
51288;SDS011;37372;52.294;5.152;2024-02-26T13:44:19;5.18;;;2.97;;
51288;SDS011;37372;52.294;5.152;2024-02-26T13:46:49;4.85;;;2.95;;
51288;SDS011;37372;52.294;5.152;2024-02-26T13:49:15;4.30;;;2.53;;
51288;SDS011;37372;52.294;5.152;2024-02-26T13:51:41;5.17;;;2.97;;
51288;SDS011;37372;52.294;5.152;2024-02-26T13:54:06;4.20;;;2.88;;
51288;SDS011;37372;52.294;5.152;2024-02-26T13:56:35;4.63;;;3.22;;
51288;SDS011;37372;52.294;5.152;2024-02-26T13:59:01;4.77;;;2.50;;
51288;SDS011;37372;52.294;5.152;2024-02-26T14:01:28;6.40;;;2.92;;
51288;SDS011;37372;52.294;5.152;2024-02-26T14:03:53;4.47;;;2.67;;
51288;SDS011;37372;52.294;5.152;2024-02-26T14:06:22;8.52;;;2.88;;
51288;SDS011;37372;52.294;5.152;2024-02-26T14:08:48;3.13;;;2.28;;
51288;SDS011;37372;52.294;5.152;2024-02-26T14:11:13;4.93;;;2.60;;
51288;SDS011;37372;52.294;5.152;2024-02-26T14:13:39;5.00;;;2.70;;
51288;SDS011;37372;52.294;5.152;2024-02-26T14:16:05;5.47;;;2.87;;
51288;SDS011;37372;52.294;5.152;2024-02-26T14:18:31;3.70;;;2.30;;
51288;SDS011;37372;52.294;5.152;2024-02-26T14:20:57;6.80;;;2.73;;
51288;SDS011;37372;52.294;5.152;2024-02-26T14:23:22;7.43;;;2.27;;
51288;SDS011;37372;52.294;5.152;2024-02-26T14:25:48;3.42;;;2.20;;
51288;SDS011;37372;52.294;5.152;2024-02-26T14:28:13;7.27;;;2.57;;
51288;SDS011;37372;52.294;5.152;2024-02-26T14:30:39;5.43;;;2.50;;
51288;SDS011;37372;52.294;5.152;2024-02-26T14:33:04;6.60;;;2.70;;
51288;SDS011;37372;52.294;5.152;2024-02-26T14:35:29;4.53;;;2.40;;
51288;SDS011;37372;52.294;5.152;2024-02-26T14:37:55;4.75;;;2.70;;
51288;SDS011;37372;52.294;5.152;2024-02-26T14:40:26;6.57;;;2.70;;
51288;SDS011;37372;52.294;5.152;2024-02-26T14:42:52;6.15;;;3.00;;